Time;durP1;ratioP1;P1;durP2;ratioP2;P2;SDS_P1;SDS_P2;PMS_P1;PMS_P2;Temp;Humidity;BMP_temperature;BMP_pressure;BME280_temperature;BME280_humidity;BME280_pressure;Samples;Min_cycle;Max_cycle;Signal;HPM_P1;HPM_P2
2023/08/16 00:00:44;;;;;;;;;4.33;4.00;;;;;21.25;85.90;101753.78;5077954;28;45261;-75
2023/08/16 00:03:10;;;;;;;;;4.00;2.67;;;;;21.23;87.56;101753.06;5093307;27;45485;-74
2023/08/16 00:05:36;;;;;;;;;2.00;2.00;;;;;21.14;88.30;101737.59;5083695;27;47190;-74
2023/08/16 00:08:01;;;;;;;;;2.00;2.00;;;;;21.23;86.04;101752.22;5093775;27;45244;-75
2023/08/16 00:10:26;;;;;;;;;3.00;2.00;;;;;21.22;87.06;101755.88;5089705;27;45256;-75
2023/08/16 00:12:52;;;;;;;;;3.00;2.33;;;;;21.21;84.29;101752.31;5094002;27;45595;-74
2023/08/16 00:15:17;;;;;;;;;2.67;2.00;;;;;21.14;85.75;101739.44;5075312;27;46398;-75
2023/08/16 00:17:43;;;;;;;;;3.00;2.00;;;;;21.19;87.49;101737.25;5072778;27;45296;-74
2023/08/16 00:20:10;;;;;;;;;4.00;3.00;;;;;21.16;86.30;101740.19;5089629;27;45330;-75
2023/08/16 00:22:35;;;;;;;;;2.00;2.00;;;;;21.17;88.61;101750.81;5096078;27;45718;-75
2023/08/16 00:25:00;;;;;;;;;4.00;2.67;;;;;21.12;86.38;101742.25;5082233;27;45265;-75
2023/08/16 00:27:25;;;;;;;;;2.67;2.67;;;;;21.14;87.20;101748.38;5080649;27;45491;-74
2023/08/16 00:29:51;;;;;;;;;1.00;1.00;;;;;21.12;87.51;101738.69;5101348;27;45356;-75
2023/08/16 00:32:16;;;;;;;;;1.00;1.00;;;;;21.10;85.68;101735.28;5096420;27;53269;-75
2023/08/16 00:34:41;;;;;;;;;2.67;2.67;;;;;21.10;87.25;101741.53;5097349;27;46560;-75
2023/08/16 00:37:07;;;;;;;;;3.33;2.67;;;;;21.11;85.46;101737.84;5082245;27;45311;-75
2023/08/16 00:39:32;;;;;;;;;1.67;1.67;;;;;21.10;85.85;101749.59;5097139;27;45213;-75
2023/08/16 00:41:58;;;;;;;;;2.33;2.00;;;;;21.05;86.78;101738.28;5095001;27;45297;-74
2023/08/16 00:44:23;;;;;;;;;3.67;2.33;;;;;21.07;85.71;101730.09;5063315;27;46804;-75
2023/08/16 00:46:48;;;;;;;;;2.00;2.00;;;;;21.03;83.82;101721.41;5082440;27;45308;-75
2023/08/16 00:49:14;;;;;;;;;2.33;2.33;;;;;21.06;83.88;101736.44;5088928;27;45377;-75
2023/08/16 00:51:40;;;;;;;;;2.00;2.00;;;;;21.01;83.08;101714.41;5085080;27;45297;-75
2023/08/16 00:54:05;;;;;;;;;2.00;2.00;;;;;20.97;84.89;101713.81;5086248;27;46145;-75
2023/08/16 00:56:31;;;;;;;;;2.00;2.00;;;;;20.95;84.67;101714.88;5100559;27;45283;-75
2023/08/16 00:58:57;;;;;;;;;2.00;2.00;;;;;20.94;86.15;101708.63;5095070;27;45456;-75
2023/08/16 01:01:23;;;;;;;;;4.00;3.00;;;;;20.97;84.21;101718.34;5086762;27;45391;-74
2023/08/16 01:03:49;;;;;;;;;1.33;1.33;;;;;20.92;83.98;101709.75;5066786;28;45455;-74
2023/08/16 01:06:14;;;;;;;;;1.00;1.00;;;;;20.92;88.63;101704.34;5097850;27;45312;-75
2023/08/16 01:08:40;;;;;;;;;1.00;1.00;;;;;20.96;86.44;101708.53;5085406;27;45313;-75
2023/08/16 01:11:33;;;;;;;;;4.00;1.33;;;;;20.95;86.73;101702.28;5083762;27;45610;-75
2023/08/16 01:14:17;;;;;;;;;2.00;1.00;;;;;20.93;86.12;101698.88;5083015;27;45514;-75
2023/08/16 01:16:46;;;;;;;;;2.00;2.00;;;;;20.87;86.53;101685.91;5080583;27;45515;-75
2023/08/16 01:19:18;;;;;;;;;3.67;1.00;;;;;20.92;84.13;101686.41;5092021;27;45346;-75
2023/08/16 01:21:53;;;;;;;;;1.00;1.00;;;;;20.91;87.12;101692.75;5086711;27;45498;-75
2023/08/16 01:24:26;;;;;;;;;3.00;2.00;;;;;20.90;84.26;101693.72;5071750;28;47239;-75
2023/08/16 01:26:53;;;;;;;;;1.33;1.33;;;;;20.85;83.42;101700.41;5084791;27;45620;-75
2023/08/16 01:29:20;;;;;;;;;1.00;1.00;;;;;20.78;83.88;101703.56;5072010;28;45559;-75
2023/08/16 01:31:45;;;;;;;;;1.00;1.00;;;;;20.86;86.96;101720.97;5082651;27;45403;-75
2023/08/16 01:34:11;;;;;;;;;2.00;2.00;;;;;20.87;89.55;101717.31;5095328;27;45907;-75
2023/08/16 01:36:36;;;;;;;;;2.00;2.00;;;;;20.85;87.96;101727.31;5095860;27;45381;-75
2023/08/16 01:39:01;;;;;;;;;2.33;2.33;;;;;20.70;87.23;101710.50;5093027;27;48522;-74
2023/08/16 01:41:45;;;;;;;;;2.00;1.00;;;;;20.83;90.85;101746.25;5089523;27;45481;-75
2023/08/16 01:44:12;;;;;;;;;0.67;0.67;;;;;20.84;90.38;101742.59;5078744;28;46910;-74
2023/08/16 01:46:39;;;;;;;;;2.00;2.00;;;;;20.74;86.66;101728.13;5080966;27;45315;-74
2023/08/16 01:49:06;;;;;;;;;2.00;1.00;;;;;20.81;84.40;101733.91;5097921;27;45255;-74
2023/08/16 01:51:31;;;;;;;;;2.00;1.00;;;;;20.79;82.46;101751.00;5101476;27;45404;-75
2023/08/16 01:53:57;;;;;;;;;0.33;0.33;;;;;20.79;84.03;101753.69;5101763;27;45577;-75
2023/08/16 01:56:22;;;;;;;;;1.00;1.00;;;;;20.74;82.22;101750.47;5086508;27;45433;-74
2023/08/16 01:58:48;;;;;;;;;2.00;1.00;;;;;20.74;82.19;101737.03;5082939;27;45403;-75
2023/08/16 02:01:14;;;;;;;;;1.00;1.00;;;;;20.74;83.62;101728.97;5063123;27;45497;-75
2023/08/16 02:03:40;;;;;;;;;1.00;1.00;;;;;20.58;81.88;101706.88;5101386;27;45466;-75
2023/08/16 02:06:05;;;;;;;;;4.33;2.33;;;;;20.74;80.43;101733.50;5088656;27;45458;-74
2023/08/16 02:08:30;;;;;;;;;3.00;1.00;;;;;20.70;81.41;101727.50;5080363;27;45301;-74
2023/08/16 02:10:56;;;;;;;;;1.00;1.00;;;;;20.69;80.83;101730.28;5080667;27;45524;-74
2023/08/16 02:13:21;;;;;;;;;3.00;2.00;;;;;20.70;80.30;101738.25;5089595;27;46236;-75
2023/08/16 02:15:47;;;;;;;;;1.00;1.00;;;;;20.70;81.39;101750.84;5076712;28;45412;-75
2023/08/16 02:18:13;;;;;;;;;2.00;1.00;;;;;20.68;79.50;101726.75;5081622;27;45296;-74
2023/08/16 02:20:39;;;;;;;;;1.00;1.00;;;;;20.62;83.57;101729.91;5082376;27;45447;-75
2023/08/16 02:23:05;;;;;;;;;1.00;1.00;;;;;20.63;79.48;101726.25;5090417;27;46129;-74
2023/08/16 02:25:31;;;;;;;;;1.00;1.00;;;;;20.67;81.96;101743.00;5064704;28;45255;-74
2023/08/16 02:27:56;;;;;;;;;2.33;1.00;;;;;20.58;78.16;101727.56;5079622;27;45384;-75
2023/08/16 02:30:22;;;;;;;;;2.00;1.00;;;;;20.55;75.93;101720.56;5095424;27;45813;-74
2023/08/16 02:32:47;;;;;;;;;1.00;1.00;;;;;20.58;76.19;101728.41;5092723;27;45371;-75
2023/08/16 02:35:13;;;;;;;;;2.00;0.67;;;;;20.56;76.73;101726.81;5079742;27;45428;-75
2023/08/16 02:37:38;;;;;;;;;0.00;0.00;;;;;20.49;79.35;101709.41;5079156;27;45383;-75
2023/08/16 02:40:04;;;;;;;;;1.00;0.67;;;;;20.57;77.59;101733.91;5086118;27;45354;-75
2023/08/16 02:42:29;;;;;;;;;0.33;0.33;;;;;20.48;78.12;101723.84;5095676;27;45408;-74
2023/08/16 02:44:55;;;;;;;;;1.00;1.00;;;;;20.52;77.77;101725.31;5098347;27;45304;-75
2023/08/16 02:47:20;;;;;;;;;1.00;0.00;;;;;20.45;75.97;101716.00;5081167;27;45371;-75
2023/08/16 02:49:46;;;;;;;;;0.00;0.00;;;;;20.48;75.85;101718.47;5075930;28;45414;-75
2023/08/16 02:52:12;;;;;;;;;1.00;0.00;;;;;20.47;78.99;101725.66;5078375;28;46945;-75
2023/08/16 02:54:38;;;;;;;;;1.00;1.00;;;;;20.50;79.58;101725.44;5080754;27;45376;-75
2023/08/16 02:57:03;;;;;;;;;2.67;1.00;;;;;20.50;79.67;101733.50;5079949;27;45237;-75
2023/08/16 02:59:42;;;;;;;;;2.00;0.67;;;;;20.46;76.93;101723.94;5078835;27;45811;-74
2023/08/16 03:02:07;;;;;;;;;1.00;1.00;;;;;20.46;76.87;101721.25;5084396;27;45338;-75
2023/08/16 03:04:33;;;;;;;;;1.33;1.00;;;;;20.39;76.74;101703.84;5089235;27;45285;-74
2023/08/16 03:06:58;;;;;;;;;1.00;1.00;;;;;20.41;74.58;101703.75;5083907;27;45299;-74
2023/08/16 03:09:24;;;;;;;;;1.00;1.00;;;;;20.45;76.13;101726.75;5082968;27;45351;-74
2023/08/16 03:11:49;;;;;;;;;1.00;1.00;;;;;20.43;78.79;101713.41;5081768;27;48046;-75
2023/08/16 03:14:15;;;;;;;;;1.00;1.00;;;;;20.34;77.42;101705.19;5086341;27;45438;-75
2023/08/16 03:16:40;;;;;;;;;2.33;1.00;;;;;20.41;76.12;101703.75;5091965;27;45480;-75
2023/08/16 03:19:06;;;;;;;;;0.00;0.00;;;;;20.41;78.72;101711.81;5071644;28;45602;-75
2023/08/16 03:21:33;;;;;;;;;1.67;1.00;;;;;20.42;80.73;101721.59;5080730;27;45442;-74
2023/08/16 03:23:59;;;;;;;;;1.00;1.00;;;;;20.42;75.85;101721.59;5065442;27;45698;-74
2023/08/16 03:26:24;;;;;;;;;1.00;1.00;;;;;20.36;76.34;101704.09;5067922;28;45778;-75
2023/08/16 03:28:49;;;;;;;;;1.00;1.00;;;;;20.38;79.55;101707.53;5085047;27;45299;-75
2023/08/16 03:31:14;;;;;;;;;1.67;1.67;;;;;20.37;81.71;101703.13;5079644;27;45304;-75
2023/08/16 03:33:40;;;;;;;;;1.00;0.67;;;;;20.39;81.30;101719.97;5082359;27;45770;-74
2023/08/16 03:36:05;;;;;;;;;1.00;1.00;;;;;20.37;80.12;101713.88;5079876;27;45319;-75
2023/08/16 03:38:30;;;;;;;;;1.00;1.00;;;;;20.37;78.27;101718.38;5079242;27;45279;-75
2023/08/16 03:40:56;;;;;;;;;0.00;0.00;;;;;20.36;80.92;101713.97;5085981;27;46200;-75
2023/08/16 03:43:21;;;;;;;;;1.00;1.00;;;;;20.37;80.32;101715.69;5099663;27;45295;-74
2023/08/16 03:45:48;;;;;;;;;1.33;0.00;;;;;20.33;77.17;101712.38;5081620;27;45256;-75
2023/08/16 03:48:13;;;;;;;;;0.00;0.00;;;;;20.29;81.20;101712.72;5071222;27;45447;-74
2023/08/16 03:50:38;;;;;;;;;1.00;1.00;;;;;20.32;79.98;101710.66;5083142;27;45569;-75
2023/08/16 03:53:04;;;;;;;;;1.00;1.00;;;;;20.21;78.47;101695.31;5079212;27;45444;-75
2023/08/16 03:55:29;;;;;;;;;1.00;1.00;;;;;20.30;82.37;101709.06;5072236;28;53700;-75
2023/08/16 03:57:54;;;;;;;;;0.67;0.67;;;;;20.29;81.26;101710.88;5089585;27;45418;-75
2023/08/16 04:00:20;;;;;;;;;0.33;0.00;;;;;20.27;78.16;101719.06;5079527;27;54280;-74
2023/08/16 04:02:45;;;;;;;;;3.00;1.00;;;;;20.28;83.86;101711.88;5087001;27;45332;-74
2023/08/16 04:05:12;;;;;;;;;1.00;1.00;;;;;20.26;82.86;101711.06;5067495;27;45424;-75
2023/08/16 04:07:38;;;;;;;;;1.67;1.00;;;;;20.25;82.00;101702.16;5079226;27;45367;-75
2023/08/16 04:10:04;;;;;;;;;0.00;0.00;;;;;20.21;82.37;101703.38;5087402;27;45344;-74
2023/08/16 04:12:30;;;;;;;;;1.00;0.00;;;;;20.17;80.35;101703.69;5079196;27;45308;-75
2023/08/16 04:14:55;;;;;;;;;0.00;0.00;;;;;20.16;81.37;101710.88;5091239;27;45478;-75
2023/08/16 04:17:21;;;;;;;;;1.33;1.00;;;;;20.12;82.97;101703.19;5079145;27;45280;-75
2023/08/16 04:19:46;;;;;;;;;0.00;0.00;;;;;20.12;80.82;101706.69;5077924;27;58474;-75
2023/08/16 04:22:11;;;;;;;;;0.00;0.00;;;;;20.12;76.51;101717.44;5091201;27;49800;-74
2023/08/16 04:24:36;;;;;;;;;0.33;0.33;;;;;20.09;76.73;101704.25;5097428;27;45677;-74
2023/08/16 04:27:03;;;;;;;;;1.00;1.00;;;;;20.10;83.09;101703.28;5097600;27;51340;-75
2023/08/16 04:29:28;;;;;;;;;1.00;1.00;;;;;20.13;84.06;101711.13;5079756;27;47103;-74
2023/08/16 04:31:55;;;;;;;;;1.00;1.00;;;;;20.09;84.45;101701.56;5061319;27;45402;-74
2023/08/16 04:34:20;;;;;;;;;1.00;1.00;;;;;20.01;84.89;101698.59;5086747;27;45320;-74
2023/08/16 04:36:46;;;;;;;;;1.00;1.00;;;;;20.04;83.44;101703.72;5094622;27;45381;-75
2023/08/16 04:39:12;;;;;;;;;1.00;1.00;;;;;20.02;82.20;101702.13;5096579;27;49934;-74
2023/08/16 04:41:37;;;;;;;;;1.00;1.00;;;;;19.90;85.06;101687.75;5098606;27;45367;-75
2023/08/16 04:44:03;;;;;;;;;0.00;0.00;;;;;19.96;82.10;101702.56;5103859;27;45640;-75
2023/08/16 04:46:30;;;;;;;;;1.00;1.00;;;;;19.88;82.07;101700.44;5108447;27;45332;-74
2023/08/16 04:48:55;;;;;;;;;4.00;1.00;;;;;19.93;79.32;101717.06;5105466;27;45793;-74
2023/08/16 04:51:21;;;;;;;;;1.33;1.33;;;;;19.90;82.34;101703.84;5107534;27;45528;-74
2023/08/16 04:53:46;;;;;;;;;1.00;1.00;;;;;19.85;79.73;101700.66;5109230;27;45453;-74
2023/08/16 04:56:12;;;;;;;;;0.00;0.00;;;;;19.89;83.93;101714.72;5106031;27;45556;-74
2023/08/16 04:58:37;;;;;;;;;1.00;1.00;;;;;19.91;83.78;101716.31;5107295;27;45515;-74
2023/08/16 05:01:02;;;;;;;;;1.00;1.00;;;;;19.75;85.79;101697.78;5110179;27;45433;-74
2023/08/16 05:03:30;;;;;;;;;2.33;1.33;;;;;19.76;86.09;101691.41;5113323;27;45477;-74
2023/08/16 05:06:03;;;;;;;;;0.00;0.00;;;;;19.81;79.89;101709.88;5113565;27;45393;-75
2023/08/16 05:08:30;;;;;;;;;1.33;1.33;;;;;19.77;81.44;101697.66;5109046;27;45423;-75
2023/08/16 05:10:56;;;;;;;;;2.00;1.00;;;;;19.64;80.46;101689.59;5111688;27;45372;-74
2023/08/16 05:13:22;;;;;;;;;1.00;1.00;;;;;19.77;82.59;101708.38;5112291;27;45386;-74
2023/08/16 05:15:47;;;;;;;;;1.00;1.00;;;;;19.76;82.26;101704.84;5113303;27;45334;-74
2023/08/16 05:18:12;;;;;;;;;1.67;1.67;;;;;19.82;82.55;101710.75;5104962;27;45542;-75
2023/08/16 05:20:38;;;;;;;;;1.00;1.00;;;;;19.74;83.97;101704.09;5107332;27;45314;-74
2023/08/16 05:23:04;;;;;;;;;3.33;1.00;;;;;19.78;85.95;101704.75;5088370;27;45319;-74
2023/08/16 05:25:29;;;;;;;;;1.00;1.00;;;;;19.80;85.87;101715.38;5090090;27;45361;-74
2023/08/16 05:27:58;;;;;;;;;3.67;2.00;;;;;19.77;82.71;101725.34;5105932;27;46075;-75
2023/08/16 05:30:27;;;;;;;;;3.00;1.00;;;;;19.77;85.54;101716.44;5109594;27;45505;-75
2023/08/16 05:32:56;;;;;;;;;2.67;2.67;;;;;19.81;85.60;101715.25;5107128;27;45293;-75
2023/08/16 05:35:22;;;;;;;;;1.33;1.33;;;;;19.83;86.17;101723.22;5107155;27;45298;-74
2023/08/16 05:37:48;;;;;;;;;2.00;2.00;;;;;19.84;85.10;101720.41;5062689;27;48018;-74
2023/08/16 05:40:14;;;;;;;;;1.33;1.33;;;;;19.85;85.20;101723.97;5093828;27;45405;-74
2023/08/16 05:42:39;;;;;;;;;1.67;1.67;;;;;19.83;85.69;101718.69;5091669;27;45385;-74
2023/08/16 05:45:05;;;;;;;;;1.67;1.00;;;;;19.84;84.50;101724.91;5084123;27;45353;-74
2023/08/16 05:47:31;;;;;;;;;3.00;1.67;;;;;19.91;86.53;101724.38;5081850;27;45906;-74
2023/08/16 05:49:57;;;;;;;;;1.67;1.67;;;;;19.94;87.23;101720.59;5079277;27;45319;-74
2023/08/16 05:52:22;;;;;;;;;3.00;3.00;;;;;19.99;86.44;101716.59;5083557;27;45380;-74
2023/08/16 05:54:48;;;;;;;;;3.00;3.00;;;;;19.96;84.19;101710.63;5091583;27;48702;-74
2023/08/16 05:57:13;;;;;;;;;2.00;2.00;;;;;20.04;85.12;101716.28;5082643;27;45367;-74
2023/08/16 05:59:40;;;;;;;;;4.67;2.00;;;;;20.06;88.86;101717.91;5090768;27;45352;-74
2023/08/16 06:02:06;;;;;;;;;2.00;2.00;;;;;20.05;85.51;101713.50;5077795;27;45449;-76
2023/08/16 06:04:32;;;;;;;;;4.33;3.00;;;;;20.06;88.05;101709.84;5094661;27;45293;-76
2023/08/16 06:06:57;;;;;;;;;1.33;1.33;;;;;20.16;89.06;101728.81;5080716;27;46207;-76
2023/08/16 06:09:22;;;;;;;;;3.00;1.00;;;;;20.16;86.82;101732.38;5080017;27;45320;-76
2023/08/16 06:11:48;;;;;;;;;1.00;1.00;;;;;20.15;90.10;101727.13;5081690;27;45497;-76
2023/08/16 06:14:13;;;;;;;;;3.00;3.00;;;;;20.11;93.00;101721.13;5088234;27;49073;-76
2023/08/16 06:16:38;;;;;;;;;5.00;3.33;;;;;20.23;92.00;101738.16;5081806;27;46698;-75
2023/08/16 06:19:04;;;;;;;;;4.33;3.67;;;;;20.19;93.45;101742.91;5093981;27;45520;-76
2023/08/16 06:21:29;;;;;;;;;2.33;2.33;;;;;20.07;94.07;101721.44;5089811;27;47508;-76
2023/08/16 06:23:56;;;;;;;;;3.67;3.67;;;;;20.25;91.99;101753.19;5066150;27;45778;-75
2023/08/16 06:26:21;;;;;;;;;6.00;3.33;;;;;20.27;95.20;101745.06;5092901;27;46002;-76
2023/08/16 06:28:47;;;;;;;;;4.00;4.00;;;;;20.30;86.79;101741.28;5076337;27;45374;-75
2023/08/16 06:31:13;;;;;;;;;5.00;3.67;;;;;20.33;87.31;101746.44;5091764;27;45370;-75
2023/08/16 06:33:38;;;;;;;;;1.00;1.00;;;;;20.31;89.55;101743.88;5080147;27;46694;-76
2023/08/16 06:36:04;;;;;;;;;4.33;2.00;;;;;20.39;90.08;101752.22;5097612;27;46121;-76
2023/08/16 06:38:29;;;;;;;;;4.00;4.00;;;;;20.43;91.04;101747.50;5086911;27;45237;-75
2023/08/16 06:40:55;;;;;;;;;5.67;3.67;;;;;20.43;84.15;101744.81;5083786;27;46462;-75
2023/08/16 06:43:20;;;;;;;;;3.00;3.00;;;;;20.47;93.91;101754.38;5066469;27;45619;-75
2023/08/16 06:45:46;;;;;;;;;3.00;3.00;;;;;20.52;91.19;101754.88;5079478;27;45241;-75
2023/08/16 06:48:11;;;;;;;;;2.00;2.00;;;;;20.50;94.14;101755.00;5079751;27;45278;-75
2023/08/16 06:50:36;;;;;;;;;3.00;1.00;;;;;20.59;93.56;101761.53;5092970;27;45448;-75
2023/08/16 06:53:02;;;;;;;;;2.33;2.33;;;;;20.59;87.99;101757.00;5080622;27;45474;-74
2023/08/16 06:55:28;;;;;;;;;5.33;5.00;;;;;20.63;84.85;101754.94;5079725;27;45473;-75
2023/08/16 06:57:54;;;;;;;;;2.33;2.33;;;;;20.66;83.59;101730.53;5094055;27;45316;-74
2023/08/16 07:00:19;;;;;;;;;2.00;2.00;;;;;20.75;82.46;101741.44;5068538;27;45554;-74
2023/08/16 07:02:44;;;;;;;;;2.00;2.00;;;;;20.90;87.29;101749.34;5086741;27;45537;-75
2023/08/16 07:05:11;;;;;;;;;3.00;3.00;;;;;20.86;83.71;101719.13;5083951;27;47193;-74
2023/08/16 07:07:36;;;;;;;;;4.00;4.00;;;;;20.98;80.85;101738.84;5092183;27;45556;-74
2023/08/16 07:10:02;;;;;;;;;4.00;3.00;;;;;21.01;81.75;101739.47;5077503;27;45307;-75
2023/08/16 07:12:27;;;;;;;;;3.33;3.33;;;;;20.97;82.29;101740.72;5080654;27;45770;-75
2023/08/16 07:14:53;;;;;;;;;3.00;3.00;;;;;20.79;82.89;101726.81;5090831;27;46265;-74
2023/08/16 07:17:18;;;;;;;;;5.00;3.00;;;;;21.03;81.47;101750.13;5078854;27;45560;-74
2023/08/16 07:19:48;;;;;;;;;4.67;3.67;;;;;21.03;82.49;101756.38;5083709;27;47779;-75
2023/08/16 07:22:13;;;;;;;;;3.33;3.33;;;;;21.02;85.39;101740.34;5087593;27;45564;-74
2023/08/16 07:24:38;;;;;;;;;4.00;3.00;;;;;21.05;84.91;101749.03;5100355;27;45392;-75
2023/08/16 07:27:04;;;;;;;;;2.33;2.00;;;;;20.98;85.29;101728.97;5094474;27;45466;-74
2023/08/16 07:29:29;;;;;;;;;3.00;3.00;;;;;21.08;84.77;101750.63;5083449;27;47057;-74
2023/08/16 07:31:54;;;;;;;;;3.33;2.33;;;;;21.00;82.12;101735.09;5083275;27;45353;-75
2023/08/16 07:34:20;;;;;;;;;5.00;3.67;;;;;21.04;84.55;101746.47;5086487;27;56963;-74
2023/08/16 07:36:45;;;;;;;;;4.33;4.00;;;;;21.06;87.77;101744.53;5078823;27;45378;-74
2023/08/16 07:39:11;;;;;;;;;3.67;3.00;;;;;21.05;84.80;101726.66;5061206;27;45462;-75
2023/08/16 07:41:36;;;;;;;;;6.33;3.67;;;;;21.24;83.45;101737.75;5091020;27;45325;-75
2023/08/16 07:44:03;;;;;;;;;1.00;1.00;;;;;21.45;84.35;101754.94;5079039;27;45607;-75
2023/08/16 07:46:28;;;;;;;;;5.00;2.33;;;;;21.57;84.33;101745.06;5079927;27;45379;-75
2023/08/16 07:48:53;;;;;;;;;3.00;3.00;;;;;21.74;81.92;101752.66;5079319;28;45217;-74
2023/08/16 07:51:19;;;;;;;;;6.00;5.00;;;;;21.76;80.48;101745.31;5079706;27;45348;-75
2023/08/16 07:53:44;;;;;;;;;8.00;5.00;;;;;21.88;80.35;101752.44;5077987;27;46272;-74
2023/08/16 07:56:09;;;;;;;;;5.33;5.00;;;;;21.92;81.50;101743.19;5093475;27;46307;-75
2023/08/16 07:58:34;;;;;;;;;5.33;3.33;;;;;22.00;81.12;101745.25;5067527;27;45434;-74
2023/08/16 08:01:00;;;;;;;;;2.00;2.00;;;;;22.16;83.82;101743.88;5094907;27;55490;-75
2023/08/16 08:03:25;;;;;;;;;5.67;5.33;;;;;22.24;82.25;101727.97;5089970;27;45296;-74
2023/08/16 08:05:51;;;;;;;;;6.00;4.00;;;;;22.42;78.53;101738.22;5079166;27;45272;-74
2023/08/16 08:08:16;;;;;;;;;7.00;4.00;;;;;22.56;78.65;101735.25;5086045;27;45288;-75
2023/08/16 08:10:43;;;;;;;;;6.00;4.67;;;;;22.71;75.99;101734.00;5079733;27;48506;-75
2023/08/16 08:13:08;;;;;;;;;4.67;4.67;;;;;22.85;76.73;101741.81;5088874;27;45436;-75
2023/08/16 08:15:34;;;;;;;;;6.67;6.00;;;;;22.94;75.68;101724.00;5087853;27;45488;-75
2023/08/16 08:17:59;;;;;;;;;5.00;4.33;;;;;23.06;77.04;101741.84;5097390;27;45363;-75
2023/08/16 08:20:25;;;;;;;;;8.00;5.00;;;;;23.09;76.29;101739.75;5080262;27;45555;-75
2023/08/16 08:22:50;;;;;;;;;3.00;3.00;;;;;23.10;74.38;101732.50;5094206;27;46298;-75
2023/08/16 08:25:15;;;;;;;;;4.33;4.00;;;;;23.29;74.57;101749.72;5079458;27;45556;-74
2023/08/16 08:27:41;;;;;;;;;4.33;3.67;;;;;23.42;76.75;101745.97;5084137;27;45393;-75
2023/08/16 08:30:07;;;;;;;;;5.33;4.33;;;;;23.55;74.26;101739.41;5087285;27;46325;-75
2023/08/16 08:32:33;;;;;;;;;4.33;3.00;;;;;23.64;73.13;101732.31;5072701;27;45787;-75
2023/08/16 08:34:58;;;;;;;;;6.33;6.33;;;;;23.83;72.72;101752.19;5074135;27;45386;-75
2023/08/16 08:37:25;;;;;;;;;4.33;4.33;;;;;23.89;73.27;101752.66;5077620;28;45364;-75
2023/08/16 08:39:50;;;;;;;;;7.67;5.67;;;;;24.07;72.89;101762.69;5100358;27;45228;-75
2023/08/16 08:42:16;;;;;;;;;5.67;5.67;;;;;24.15;71.99;101754.78;5078818;27;47660;-75
2023/08/16 08:44:43;;;;;;;;;6.00;6.00;;;;;24.37;72.36;101767.25;5094320;27;45362;-75
2023/08/16 08:47:09;;;;;;;;;8.33;5.00;;;;;24.38;70.58;101762.69;5082516;27;45379;-75
2023/08/16 08:49:34;;;;;;;;;6.67;5.00;;;;;24.46;70.52;101765.56;5065396;28;45428;-75
2023/08/16 08:52:04;;;;;;;;;7.67;4.00;;;;;24.66;69.60;101761.91;5082989;27;45921;-75
2023/08/16 08:54:30;;;;;;;;;4.67;4.33;;;;;24.83;69.99;101766.66;5067275;28;45280;-75
2023/08/16 08:56:59;;;;;;;;;7.67;4.00;;;;;24.95;69.32;101759.25;5067471;28;45314;-75
2023/08/16 08:59:26;;;;;;;;;6.67;5.33;;;;;25.12;69.68;101772.09;5091493;27;45460;-75
2023/08/16 09:01:52;;;;;;;;;8.33;6.33;;;;;25.31;70.27;101764.81;5089973;27;45410;-75
2023/08/16 09:04:18;;;;;;;;;6.67;5.67;;;;;25.47;67.08;101757.94;5095105;27;45445;-75
2023/08/16 09:06:44;;;;;;;;;5.00;5.00;;;;;25.63;67.47;101763.63;5102854;27;45291;-75
2023/08/16 09:09:11;;;;;;;;;12.00;7.00;;;;;25.77;66.32;101758.63;5080262;27;45708;-75
2023/08/16 09:11:36;;;;;;;;;9.33;7.33;;;;;25.86;67.21;101748.72;5094496;27;46001;-75
2023/08/16 09:14:04;;;;;;;;;8.00;4.00;;;;;25.85;67.26;101757.88;5099600;27;45679;-75
2023/08/16 09:16:29;;;;;;;;;5.33;5.00;;;;;25.87;64.71;101735.03;5099414;27;45446;-75
2023/08/16 09:18:55;;;;;;;;;6.00;6.00;;;;;26.06;66.06;101741.38;5085049;27;45442;-75
2023/08/16 09:21:24;;;;;;;;;6.33;5.33;;;;;26.08;64.45;101742.09;5083097;27;49854;-75
2023/08/16 09:24:00;;;;;;;;;5.33;4.33;;;;;26.01;65.26;101741.84;5075010;28;45583;-75
2023/08/16 09:26:29;;;;;;;;;5.67;5.67;;;;;25.96;64.23;101738.72;5087027;27;45401;-76
2023/08/16 09:29:04;;;;;;;;;5.00;3.67;;;;;25.86;64.70;101748.72;5084951;27;45733;-75
2023/08/16 09:31:37;;;;;;;;;6.33;5.67;;;;;25.91;66.10;101746.44;5081398;27;45346;-76
2023/08/16 09:34:04;;;;;;;;;4.00;3.00;;;;;25.85;64.25;101734.31;5080413;27;45319;-75
2023/08/16 09:36:35;;;;;;;;;2.67;2.67;;;;;25.88;65.05;101736.72;5087050;27;45351;-75
2023/08/16 09:39:01;;;;;;;;;5.00;5.00;;;;;25.94;65.51;101745.28;5081470;27;45581;-75
2023/08/16 09:41:27;;;;;;;;;6.33;3.67;;;;;25.96;68.75;101744.13;5075465;27;46387;-75
2023/08/16 09:44:00;;;;;;;;;8.00;5.00;;;;;25.96;66.25;101729.72;5090618;27;45880;-75
2023/08/16 09:46:26;;;;;;;;;4.00;4.00;;;;;25.99;66.87;101729.41;5081819;27;45421;-75
2023/08/16 09:48:51;;;;;;;;;3.00;3.00;;;;;25.99;66.74;101732.13;5078828;28;45309;-76
2023/08/16 09:51:16;;;;;;;;;2.67;2.67;;;;;25.99;66.77;101735.69;5067376;27;47211;-75
2023/08/16 09:53:46;;;;;;;;;2.00;2.00;;;;;25.94;65.69;101710.03;5087302;27;45301;-76
2023/08/16 09:56:14;;;;;;;;;3.00;3.00;;;;;25.92;64.25;101710.19;5080997;27;45355;-76
2023/08/16 09:58:40;;;;;;;;;4.00;2.67;;;;;25.98;65.72;101714.19;5087095;27;45638;-75
2023/08/16 10:01:06;;;;;;;;;3.00;3.00;;;;;25.97;63.66;101702.47;5089333;27;45524;-76
2023/08/16 10:03:33;;;;;;;;;4.00;3.00;;;;;26.07;65.01;101695.16;5081350;27;45526;-75
2023/08/16 10:06:00;;;;;;;;;3.00;3.00;;;;;26.11;64.20;101688.38;5082175;27;45293;-75
2023/08/16 10:08:27;;;;;;;;;2.00;2.00;;;;;26.29;65.57;101694.75;5093398;27;45348;-75
2023/08/16 10:10:54;;;;;;;;;4.00;3.00;;;;;26.33;67.02;101666.31;5101125;27;45443;-75
2023/08/16 10:13:22;;;;;;;;;3.00;3.00;;;;;26.52;64.03;101681.59;5086943;27;45645;-76
2023/08/16 10:15:48;;;;;;;;;1.33;1.00;;;;;26.50;65.72;101661.94;5088305;27;45325;-75
2023/08/16 10:18:18;;;;;;;;;3.33;3.00;;;;;26.62;65.03;101676.97;5089611;27;46156;-75
2023/08/16 10:20:47;;;;;;;;;2.00;2.00;;;;;26.68;64.75;101665.47;5082591;27;45659;-76
2023/08/16 10:23:18;;;;;;;;;2.00;2.00;;;;;26.88;63.40;101682.50;5080472;27;45328;-75
2023/08/16 10:25:47;;;;;;;;;1.67;1.67;;;;;26.86;60.39;101663.63;5081924;27;45309;-75
2023/08/16 10:28:19;;;;;;;;;6.00;2.33;;;;;27.03;62.43;101667.31;5064968;27;45392;-75
2023/08/16 10:30:50;;;;;;;;;1.67;1.67;;;;;27.17;63.29;101666.75;5092598;27;46189;-75
2023/08/16 10:33:27;;;;;;;;;3.33;3.00;;;;;27.26;61.36;101673.09;5070052;27;45421;-75
2023/08/16 10:35:53;;;;;;;;;1.00;1.00;;;;;27.30;61.00;101677.22;5087444;27;45489;-75
2023/08/16 10:38:19;;;;;;;;;1.00;1.00;;;;;27.36;59.94;101672.00;5088559;27;45538;-75
2023/08/16 10:40:57;;;;;;;;;1.00;1.00;;;;;27.46;63.09;101681.94;5080879;27;46191;-76
2023/08/16 10:43:34;;;;;;;;;3.00;3.00;;;;;27.42;58.84;101656.94;5080731;27;45360;-75
2023/08/16 10:46:00;;;;;;;;;2.00;2.00;;;;;27.54;60.30;101669.25;5081731;27;45317;-76
2023/08/16 10:48:33;;;;;;;;;2.00;2.00;;;;;27.51;56.89;101666.00;5079959;27;45475;-76
2023/08/16 10:51:02;;;;;;;;;1.33;1.00;;;;;27.54;58.25;101668.41;5079336;27;45552;-75
2023/08/16 10:53:28;;;;;;;;;2.00;2.00;;;;;27.60;57.16;101678.63;5084278;27;45487;-75
2023/08/16 10:55:55;;;;;;;;;1.00;1.00;;;;;27.62;58.73;101679.31;5082650;27;45307;-75
2023/08/16 10:58:25;;;;;;;;;1.67;1.67;;;;;27.68;57.33;101678.69;5085355;27;45218;-76
2023/08/16 11:00:58;;;;;;;;;3.00;2.00;;;;;27.64;57.10;101678.16;5082130;27;45386;-76
2023/08/16 11:03:34;;;;;;;;;2.33;2.00;;;;;27.67;57.54;101675.09;5092929;27;45305;-75
2023/08/16 11:06:05;;;;;;;;;3.00;1.00;;;;;27.70;57.85;101668.47;5084410;27;45347;-76
2023/08/16 11:08:31;;;;;;;;;3.00;1.67;;;;;27.62;57.43;101633.94;5081410;27;45807;-76
2023/08/16 11:10:57;;;;;;;;;1.67;1.67;;;;;27.78;57.73;101660.38;5092278;27;46047;-75
2023/08/16 11:13:23;;;;;;;;;1.67;1.00;;;;;27.76;56.94;101652.38;5074040;27;45451;-76
2023/08/16 11:15:48;;;;;;;;;3.00;2.00;;;;;27.81;57.59;101660.06;5089169;27;45419;-76
2023/08/16 11:18:13;;;;;;;;;2.00;2.00;;;;;27.87;58.04;101656.69;5082358;27;45391;-76
2023/08/16 11:20:41;;;;;;;;;3.00;1.33;;;;;27.87;56.84;101654.81;5089898;27;45502;-76